sensor_id;sensor_type;location;lat;lon;timestamp;pressure;altitude;pressure_sealevel;temperature;humidity
55759;BME280;41678;52.126;20.664;2023-08-30T00:00:28;99187.31;;;19.38;89.20
55759;BME280;41678;52.126;20.664;2023-08-30T00:06:07;99178.34;;;19.39;89.12
55759;BME280;41678;52.126;20.664;2023-08-30T00:11:27;99171.72;;;19.32;89.05
55759;BME280;41678;52.126;20.664;2023-08-30T00:16:48;99184.75;;;19.37;89.28
55759;BME280;41678;52.126;20.664;2023-08-30T00:22:07;99190.94;;;19.37;89.33
55759;BME280;41678;52.126;20.664;2023-08-30T00:27:27;99205.03;;;19.39;89.73
55759;BME280;41678;52.126;20.664;2023-08-30T00:32:46;99198.41;;;19.32;89.71
55759;BME280;41678;52.126;20.664;2023-08-30T00:38:06;99216.88;;;19.35;89.90
55759;BME280;41678;52.126;20.664;2023-08-30T00:43:25;99211.06;;;19.29;89.91
55759;BME280;41678;52.126;20.664;2023-08-30T00:48:45;99209.28;;;19.29;90.04
55759;BME280;41678;52.126;20.664;2023-08-30T00:54:05;99221.66;;;19.30;90.13
55759;BME280;41678;52.126;20.664;2023-08-30T00:59:25;99223.00;;;19.23;90.31
55759;BME280;41678;52.126;20.664;2023-08-30T01:04:47;99224.06;;;19.20;90.42
55759;BME280;41678;52.126;20.664;2023-08-30T01:10:07;99220.19;;;19.11;90.45
55759;BME280;41678;52.126;20.664;2023-08-30T01:15:28;99222.84;;;19.11;90.43
55759;BME280;41678;52.126;20.664;2023-08-30T01:20:50;99226.56;;;19.09;90.51
55759;BME280;41678;52.126;20.664;2023-08-30T01:26:18;99229.53;;;19.04;90.54
55759;BME280;41678;52.126;20.664;2023-08-30T01:31:40;99229.53;;;19.04;90.31
55759;BME280;41678;52.126;20.664;2023-08-30T01:37:02;99231.97;;;18.93;90.67
55759;BME280;41678;52.126;20.664;2023-08-30T01:42:24;99229.50;;;18.90;90.53
55759;BME280;41678;52.126;20.664;2023-08-30T01:47:45;99223.50;;;18.86;90.67
55759;BME280;41678;52.126;20.664;2023-08-30T01:53:05;99214.13;;;18.80;90.63
55759;BME280;41678;52.126;20.664;2023-08-30T01:58:26;99202.09;;;18.73;90.63
55759;BME280;41678;52.126;20.664;2023-08-30T02:03:46;99174.03;;;18.67;90.31
55759;BME280;41678;52.126;20.664;2023-08-30T02:09:28;99160.03;;;18.64;90.17
55759;BME280;41678;52.126;20.664;2023-08-30T02:14:49;99161.19;;;18.60;90.23
55759;BME280;41678;52.126;20.664;2023-08-30T02:20:09;99145.09;;;18.61;90.08
55759;BME280;41678;52.126;20.664;2023-08-30T02:25:29;99150.69;;;18.71;90.57
55759;BME280;41678;52.126;20.664;2023-08-30T02:30:52;99137.66;;;18.66;90.58
55759;BME280;41678;52.126;20.664;2023-08-30T02:36:11;99126.25;;;18.64;90.56
55759;BME280;41678;52.126;20.664;2023-08-30T02:41:31;99128.03;;;18.64;90.56
55759;BME280;41678;52.126;20.664;2023-08-30T02:46:51;99128.44;;;18.58;90.51
55759;BME280;41678;52.126;20.664;2023-08-30T02:52:11;99125.78;;;18.58;90.65
55759;BME280;41678;52.126;20.664;2023-08-30T02:57:30;99144.91;;;18.50;90.21
55759;BME280;41678;52.126;20.664;2023-08-30T03:02:49;99143.47;;;18.44;90.72
55759;BME280;41678;52.126;20.664;2023-08-30T03:08:09;99121.97;;;18.47;90.48
55759;BME280;41678;52.126;20.664;2023-08-30T03:13:29;99118.75;;;18.42;90.49
55759;BME280;41678;52.126;20.664;2023-08-30T03:18:49;99097.03;;;18.34;90.76
55759;BME280;41678;52.126;20.664;2023-08-30T03:24:10;99104.00;;;18.36;90.49
55759;BME280;41678;52.126;20.664;2023-08-30T03:29:29;99103.31;;;18.33;91.34
55759;BME280;41678;52.126;20.664;2023-08-30T03:34:49;99109.41;;;18.35;90.36
55759;BME280;41678;52.126;20.664;2023-08-30T03:40:11;99082.03;;;18.18;90.45
55759;BME280;41678;52.126;20.664;2023-08-30T03:45:36;99114.94;;;18.32;90.50
55759;BME280;41678;52.126;20.664;2023-08-30T03:50:57;99112.66;;;18.25;90.34
55759;BME280;41678;52.126;20.664;2023-08-30T03:56:17;99108.56;;;18.20;90.16
55759;BME280;41678;52.126;20.664;2023-08-30T04:01:37;99116.56;;;18.20;90.22
55759;BME280;41678;52.126;20.664;2023-08-30T04:06:58;99136.91;;;18.21;90.39
55759;BME280;41678;52.126;20.664;2023-08-30T04:12:17;99139.97;;;18.15;90.41
55759;BME280;41678;52.126;20.664;2023-08-30T04:17:37;99142.16;;;18.22;90.31
55759;BME280;41678;52.126;20.664;2023-08-30T04:22:56;99137.97;;;18.18;90.61
55759;BME280;41678;52.126;20.664;2023-08-30T04:28:17;99146.75;;;18.20;90.47
55759;BME280;41678;52.126;20.664;2023-08-30T04:33:39;99136.25;;;18.17;90.63
55759;BME280;41678;52.126;20.664;2023-08-30T04:38:58;99121.97;;;18.18;90.72
55759;BME280;41678;52.126;20.664;2023-08-30T04:44:18;99134.34;;;18.19;90.80
55759;BME280;41678;52.126;20.664;2023-08-30T04:49:43;99141.41;;;18.20;90.98
55759;BME280;41678;52.126;20.664;2023-08-30T04:55:04;99154.91;;;18.17;91.45
55759;BME280;41678;52.126;20.664;2023-08-30T05:00:24;99152.63;;;18.11;91.08
55759;BME280;41678;52.126;20.664;2023-08-30T05:05:46;99152.69;;;18.09;91.12
55759;BME280;41678;52.126;20.664;2023-08-30T05:11:07;99172.28;;;18.08;91.36
55759;BME280;41678;52.126;20.664;2023-08-30T05:16:29;99168.88;;;18.06;91.17
55759;BME280;41678;52.126;20.664;2023-08-30T05:21:49;99180.47;;;18.05;91.02
55759;BME280;41678;52.126;20.664;2023-08-30T05:27:14;99184.97;;;18.05;91.23
55759;BME280;41678;52.126;20.664;2023-08-30T05:32:34;99172.41;;;18.07;91.14
55759;BME280;41678;52.126;20.664;2023-08-30T05:38:12;99182.09;;;18.08;91.19
55759;BME280;41678;52.126;20.664;2023-08-30T05:43:39;99189.91;;;18.11;91.39
55759;BME280;41678;52.126;20.664;2023-08-30T05:48:59;99202.66;;;18.06;91.41
55759;BME280;41678;52.126;20.664;2023-08-30T05:54:22;99203.41;;;18.08;91.41
55759;BME280;41678;52.126;20.664;2023-08-30T05:59:43;99208.94;;;18.05;91.59
55759;BME280;41678;52.126;20.664;2023-08-30T06:05:03;99209.69;;;18.07;91.43
55759;BME280;41678;52.126;20.664;2023-08-30T06:10:23;99207.97;;;18.06;91.47
55759;BME280;41678;52.126;20.664;2023-08-30T06:15:43;99207.97;;;18.06;91.58
55759;BME280;41678;52.126;20.664;2023-08-30T06:21:04;99209.69;;;18.07;91.72
55759;BME280;41678;52.126;20.664;2023-08-30T06:26:23;99207.19;;;18.04;91.70
55759;BME280;41678;52.126;20.664;2023-08-30T06:31:44;99203.84;;;18.00;91.66
55759;BME280;41678;52.126;20.664;2023-08-30T06:37:04;99204.13;;;17.95;91.59
55759;BME280;41678;52.126;20.664;2023-08-30T06:42:23;99202.81;;;18.03;91.53
55759;BME280;41678;52.126;20.664;2023-08-30T06:47:44;99206.06;;;18.08;91.80
55759;BME280;41678;52.126;20.664;2023-08-30T06:53:04;99206.91;;;18.08;91.72
55759;BME280;41678;52.126;20.664;2023-08-30T06:58:23;99205.00;;;18.10;91.70
55759;BME280;41678;52.126;20.664;2023-08-30T07:03:43;99204.19;;;18.10;91.95
55759;BME280;41678;52.126;20.664;2023-08-30T07:09:03;99213.69;;;18.14;91.92
55759;BME280;41678;52.126;20.664;2023-08-30T07:14:30;99218.25;;;18.12;92.17
55759;BME280;41678;52.126;20.664;2023-08-30T07:19:49;99225.09;;;18.16;92.18
55759;BME280;41678;52.126;20.664;2023-08-30T07:25:09;99235.09;;;18.12;92.15
55759;BME280;41678;52.126;20.664;2023-08-30T07:30:33;99238.81;;;18.10;92.29
55759;BME280;41678;52.126;20.664;2023-08-30T07:35:54;99231.75;;;18.09;92.26
55759;BME280;41678;52.126;20.664;2023-08-30T07:41:13;99216.94;;;18.05;92.45
55759;BME280;41678;52.126;20.664;2023-08-30T07:46:34;99226.94;;;17.99;92.39
55759;BME280;41678;52.126;20.664;2023-08-30T07:51:54;99218.63;;;18.06;92.24
55759;BME280;41678;52.126;20.664;2023-08-30T07:57:13;99207.47;;;17.99;92.38
55759;BME280;41678;52.126;20.664;2023-08-30T08:02:33;99219.59;;;18.05;92.56
55759;BME280;41678;52.126;20.664;2023-08-30T08:07:53;99223.97;;;18.06;92.78
55759;BME280;41678;52.126;20.664;2023-08-30T08:13:13;99217.06;;;18.02;92.57
55759;BME280;41678;52.126;20.664;2023-08-30T08:18:32;99214.38;;;18.02;92.61
55759;BME280;41678;52.126;20.664;2023-08-30T08:23:51;99217.94;;;18.02;92.93
55759;BME280;41678;52.126;20.664;2023-08-30T08:29:11;99221.63;;;17.99;92.75
55759;BME280;41678;52.126;20.664;2023-08-30T08:34:30;99220.44;;;17.89;92.63
55759;BME280;41678;52.126;20.664;2023-08-30T08:39:50;99221.31;;;17.90;92.73
55759;BME280;41678;52.126;20.664;2023-08-30T08:45:10;99229.38;;;17.88;92.75
55759;BME280;41678;52.126;20.664;2023-08-30T08:50:34;99230.63;;;17.82;92.87
55759;BME280;41678;52.126;20.664;2023-08-30T08:55:56;99236.03;;;17.81;92.65
55759;BME280;41678;52.126;20.664;2023-08-30T09:01:17;99239.88;;;17.91;92.77
55759;BME280;41678;52.126;20.664;2023-08-30T09:06:38;99247.66;;;17.94;93.16
55759;BME280;41678;52.126;20.664;2023-08-30T09:12:02;99240.03;;;17.88;93.16
55759;BME280;41678;52.126;20.664;2023-08-30T09:17:22;99233.59;;;17.92;93.25
55759;BME280;41678;52.126;20.664;2023-08-30T09:22:43;99230.06;;;17.92;93.15
55759;BME280;41678;52.126;20.664;2023-08-30T09:28:02;99223.03;;;17.91;93.10
55759;BME280;41678;52.126;20.664;2023-08-30T09:33:29;99226.72;;;17.88;93.25
55759;BME280;41678;52.126;20.664;2023-08-30T09:38:48;99222.25;;;17.89;93.65
55759;BME280;41678;52.126;20.664;2023-08-30T09:44:19;99228.41;;;17.89;93.83
55759;BME280;41678;52.126;20.664;2023-08-30T09:49:45;99217.97;;;17.86;93.72
55759;BME280;41678;52.126;20.664;2023-08-30T09:55:05;99217.97;;;17.86;93.62
55759;BME280;41678;52.126;20.664;2023-08-30T10:00:25;99220.03;;;17.81;93.60
55759;BME280;41678;52.126;20.664;2023-08-30T10:05:45;99215.47;;;17.83;93.73
55759;BME280;41678;52.126;20.664;2023-08-30T10:11:05;99221.56;;;17.85;93.68
55759;BME280;41678;52.126;20.664;2023-08-30T10:16:26;99216.06;;;17.88;93.61
55759;BME280;41678;52.126;20.664;2023-08-30T10:21:47;99212.44;;;17.89;93.80
55759;BME280;41678;52.126;20.664;2023-08-30T10:27:08;99219.13;;;17.96;93.65
55759;BME280;41678;52.126;20.664;2023-08-30T10:32:28;99222.38;;;18.02;94.15
55759;BME280;41678;52.126;20.664;2023-08-30T10:37:55;99218.72;;;18.04;94.41
55759;BME280;41678;52.126;20.664;2023-08-30T10:43:15;99231.00;;;18.07;94.11
55759;BME280;41678;52.126;20.664;2023-08-30T10:48:39;99234.22;;;18.12;94.28
55759;BME280;41678;52.126;20.664;2023-08-30T10:53:58;99223.59;;;18.12;94.40
55759;BME280;41678;52.126;20.664;2023-08-30T10:59:19;99214.72;;;18.11;94.31
55759;BME280;41678;52.126;20.664;2023-08-30T11:04:42;99225.09;;;18.16;94.44
55759;BME280;41678;52.126;20.664;2023-08-30T11:10:05;99235.75;;;18.16;94.34
55759;BME280;41678;52.126;20.664;2023-08-30T11:15:26;99225.72;;;18.21;94.58
55759;BME280;41678;52.126;20.664;2023-08-30T11:20:46;99227.22;;;18.25;94.63
55759;BME280;41678;52.126;20.664;2023-08-30T11:26:07;99225.41;;;18.26;94.62
55759;BME280;41678;52.126;20.664;2023-08-30T11:31:26;99221.13;;;18.23;94.60
55759;BME280;41678;52.126;20.664;2023-08-30T11:36:47;99236.53;;;18.33;94.38
55759;BME280;41678;52.126;20.664;2023-08-30T11:42:07;99223.91;;;18.36;94.55
55759;BME280;41678;52.126;20.664;2023-08-30T11:47:27;99235.91;;;18.44;94.86
55759;BME280;41678;52.126;20.664;2023-08-30T11:52:46;99219.94;;;18.44;95.06
55759;BME280;41678;52.126;20.664;2023-08-30T11:58:08;99224.94;;;18.48;94.83
55759;BME280;41678;52.126;20.664;2023-08-30T12:03:29;99234.78;;;18.48;94.97
55759;BME280;41678;52.126;20.664;2023-08-30T12:08:48;99243.72;;;18.47;94.88
55759;BME280;41678;52.126;20.664;2023-08-30T12:14:08;99247.41;;;18.44;94.92
55759;BME280;41678;52.126;20.664;2023-08-30T12:19:28;99250.06;;;18.44;95.26
55759;BME280;41678;52.126;20.664;2023-08-30T12:24:47;99243.91;;;18.44;95.20
55759;BME280;41678;52.126;20.664;2023-08-30T12:30:07;99249.13;;;18.45;95.36
55759;BME280;41678;52.126;20.664;2023-08-30T12:35:27;99251.22;;;18.40;95.22
55759;BME280;41678;52.126;20.664;2023-08-30T12:40:48;99245.03;;;18.39;94.90
55759;BME280;41678;52.126;20.664;2023-08-30T12:46:11;99231.91;;;18.36;94.97
55759;BME280;41678;52.126;20.664;2023-08-30T12:51:30;99240.66;;;18.38;95.13
55759;BME280;41678;52.126;20.664;2023-08-30T12:56:50;99231.06;;;18.36;95.07
55759;BME280;41678;52.126;20.664;2023-08-30T13:02:09;99233.59;;;18.37;95.08
55759;BME280;41678;52.126;20.664;2023-08-30T13:07:29;99230.66;;;18.42;95.06
55759;BME280;41678;52.126;20.664;2023-08-30T13:12:52;99231.81;;;18.38;95.16
55759;BME280;41678;52.126;20.664;2023-08-30T13:18:14;99238.66;;;18.42;95.26
55759;BME280;41678;52.126;20.664;2023-08-30T13:23:36;99227.03;;;18.43;95.06
55759;BME280;41678;52.126;20.664;2023-08-30T13:28:56;99222.47;;;18.45;95.25
55759;BME280;41678;52.126;20.664;2023-08-30T13:34:17;99218.97;;;18.45;95.19
55759;BME280;41678;52.126;20.664;2023-08-30T13:39:41;99212.78;;;18.44;95.05
55759;BME280;41678;52.126;20.664;2023-08-30T13:45:01;99207.44;;;18.44;95.38
55759;BME280;41678;52.126;20.664;2023-08-30T13:50:21;99213.66;;;18.45;95.19
55759;BME280;41678;52.126;20.664;2023-08-30T13:55:45;99203.16;;;18.41;95.25
55759;BME280;41678;52.126;20.664;2023-08-30T14:01:04;99203.63;;;18.48;95.14
55759;BME280;41678;52.126;20.664;2023-08-30T14:06:24;99203.81;;;18.45;95.50
55759;BME280;41678;52.126;20.664;2023-08-30T14:11:44;99210.50;;;18.52;95.37
55759;BME280;41678;52.126;20.664;2023-08-30T14:17:04;99203.06;;;18.58;95.62
55759;BME280;41678;52.126;20.664;2023-08-30T14:22:23;99206.59;;;18.58;95.71
55759;BME280;41678;52.126;20.664;2023-08-30T14:27:42;99206.50;;;18.60;95.66
55759;BME280;41678;52.126;20.664;2023-08-30T14:33:03;99212.84;;;18.57;95.51
55759;BME280;41678;52.126;20.664;2023-08-30T14:38:23;99221.72;;;18.58;95.54
55759;BME280;41678;52.126;20.664;2023-08-30T14:43:43;99232.59;;;18.54;95.47
55759;BME280;41678;52.126;20.664;2023-08-30T14:49:03;99249.59;;;18.52;95.41
55759;BME280;41678;52.126;20.664;2023-08-30T14:54:22;99241.13;;;18.45;95.39
55759;BME280;41678;52.126;20.664;2023-08-30T14:59:42;99251.72;;;18.47;95.14
55759;BME280;41678;52.126;20.664;2023-08-30T15:05:01;99260.75;;;18.44;95.34
55759;BME280;41678;52.126;20.664;2023-08-30T15:10:21;99257.31;;;18.42;95.60
55759;BME280;41678;52.126;20.664;2023-08-30T15:15:40;99253.88;;;18.40;95.42
55759;BME280;41678;52.126;20.664;2023-08-30T15:21:00;99261.47;;;18.32;95.24
55759;BME280;41678;52.126;20.664;2023-08-30T15:26:21;99275.75;;;18.31;95.55
55759;BME280;41678;52.126;20.664;2023-08-30T15:31:40;99277.56;;;18.30;95.28
55759;BME280;41678;52.126;20.664;2023-08-30T15:37:00;99284.88;;;18.26;95.25
55759;BME280;41678;52.126;20.664;2023-08-30T15:42:19;99284.31;;;18.21;95.16
55759;BME280;41678;52.126;20.664;2023-08-30T15:47:38;99290.75;;;18.17;95.11
55759;BME280;41678;52.126;20.664;2023-08-30T15:52:58;99298.84;;;18.16;95.05
55759;BME280;41678;52.126;20.664;2023-08-30T15:58:18;99297.97;;;18.15;94.85
55759;BME280;41678;52.126;20.664;2023-08-30T16:03:37;99293.72;;;18.12;94.83
55759;BME280;41678;52.126;20.664;2023-08-30T16:08:57;99307.09;;;18.11;94.69
55759;BME280;41678;52.126;20.664;2023-08-30T16:14:16;99301.78;;;18.11;95.00
55759;BME280;41678;52.126;20.664;2023-08-30T16:19:36;99310.59;;;18.11;94.77
55759;BME280;41678;52.126;20.664;2023-08-30T16:24:56;99311.28;;;18.15;94.77
55759;BME280;41678;52.126;20.664;2023-08-30T16:30:18;99293.44;;;18.01;94.93
55759;BME280;41678;52.126;20.664;2023-08-30T16:35:38;99312.63;;;18.08;94.93
55759;BME280;41678;52.126;20.664;2023-08-30T16:40:58;99314.34;;;18.09;94.83
55759;BME280;41678;52.126;20.664;2023-08-30T16:46:23;99314.81;;;17.99;95.03
55759;BME280;41678;52.126;20.664;2023-08-30T16:51:43;99316.38;;;18.04;94.94
55759;BME280;41678;52.126;20.664;2023-08-30T16:57:02;99300.66;;;17.99;94.88
55759;BME280;41678;52.126;20.664;2023-08-30T17:02:22;99297.25;;;17.97;94.51
55759;BME280;41678;52.126;20.664;2023-08-30T17:07:42;99279.97;;;17.88;94.62
55759;BME280;41678;52.126;20.664;2023-08-30T17:13:03;99282.56;;;17.90;94.76
55759;BME280;41678;52.126;20.664;2023-08-30T17:18:23;99267.34;;;17.92;94.42
55759;BME280;41678;52.126;20.664;2023-08-30T17:23:42;99262.47;;;17.84;94.52
55759;BME280;41678;52.126;20.664;2023-08-30T17:29:02;99260.94;;;17.80;94.62
55759;BME280;41678;52.126;20.664;2023-08-30T17:34:22;99242.88;;;17.85;94.46
55759;BME280;41678;52.126;20.664;2023-08-30T17:39:42;99246.84;;;17.78;94.50
55759;BME280;41678;52.126;20.664;2023-08-30T17:45:01;99238.09;;;17.76;94.59
55759;BME280;41678;52.126;20.664;2023-08-30T17:50:20;99256.13;;;17.70;94.65
55759;BME280;41678;52.126;20.664;2023-08-30T17:55:40;99267.03;;;17.66;94.59
55759;BME280;41678;52.126;20.664;2023-08-30T18:01:01;99271.00;;;17.59;94.51
55759;BME280;41678;52.126;20.664;2023-08-30T18:06:20;99277.28;;;17.58;94.44
55759;BME280;41678;52.126;20.664;2023-08-30T18:11:40;99280.19;;;17.53;94.59
55759;BME280;41678;52.126;20.664;2023-08-30T18:16:59;99275.75;;;17.53;94.55
55759;BME280;41678;52.126;20.664;2023-08-30T18:22:19;99272.28;;;17.51;94.63
55759;BME280;41678;52.126;20.664;2023-08-30T18:27:40;99284.69;;;17.52;94.43
55759;BME280;41678;52.126;20.664;2023-08-30T18:32:59;99262.59;;;17.50;94.35
55759;BME280;41678;52.126;20.664;2023-08-30T18:38:19;99264.31;;;17.51;94.38
55759;BME280;41678;52.126;20.664;2023-08-30T18:43:38;99270.84;;;17.46;94.65
55759;BME280;41678;52.126;20.664;2023-08-30T18:48:57;99278.91;;;17.44;94.51
55759;BME280;41678;52.126;20.664;2023-08-30T18:54:17;99281.66;;;17.42;94.50
55759;BME280;41678;52.126;20.664;2023-08-30T18:59:37;99283.22;;;17.47;94.50
55759;BME280;41678;52.126;20.664;2023-08-30T19:04:56;99278.84;;;17.46;94.43
55759;BME280;41678;52.126;20.664;2023-08-30T19:10:16;99296.59;;;17.45;94.45
55759;BME280;41678;52.126;20.664;2023-08-30T19:15:38;99297.47;;;17.46;94.65
55759;BME280;41678;52.126;20.664;2023-08-30T19:20:58;99300.97;;;17.46;94.53
55759;BME280;41678;52.126;20.664;2023-08-30T19:26:19;99306.47;;;17.43;94.38
55759;BME280;41678;52.126;20.664;2023-08-30T19:31:40;99310.84;;;17.44;94.49
55759;BME280;41678;52.126;20.664;2023-08-30T19:37:00;99316.25;;;17.42;94.48
55759;BME280;41678;52.126;20.664;2023-08-30T19:42:20;99325.16;;;17.41;94.25
55759;BME280;41678;52.126;20.664;2023-08-30T19:47:42;99323.69;;;17.36;94.34
55759;BME280;41678;52.126;20.664;2023-08-30T19:53:02;99334.63;;;17.31;94.77
55759;BME280;41678;52.126;20.664;2023-08-30T19:58:23;99339.94;;;17.31;94.32
55759;BME280;41678;52.126;20.664;2023-08-30T20:03:42;99347.28;;;17.26;94.61
55759;BME280;41678;52.126;20.664;2023-08-30T20:09:02;99346.63;;;17.22;94.54
55759;BME280;41678;52.126;20.664;2023-08-30T20:14:22;99363.66;;;17.18;94.40
55759;BME280;41678;52.126;20.664;2023-08-30T20:19:41;99358.59;;;17.13;94.47
55759;BME280;41678;52.126;20.664;2023-08-30T20:25:01;99367.50;;;17.12;94.66
55759;BME280;41678;52.126;20.664;2023-08-30T20:30:22;99365.13;;;17.08;94.54
55759;BME280;41678;52.126;20.664;2023-08-30T20:35:43;99374.88;;;17.07;94.48
55759;BME280;41678;52.126;20.664;2023-08-30T20:41:02;99375.06;;;17.04;94.34
55759;BME280;41678;52.126;20.664;2023-08-30T20:46:22;99366.31;;;17.02;94.20
55759;BME280;41678;52.126;20.664;2023-08-30T20:51:41;99367.16;;;17.03;94.49
55759;BME280;41678;52.126;20.664;2023-08-30T20:57:01;99363.84;;;16.97;94.36
55759;BME280;41678;52.126;20.664;2023-08-30T21:02:20;99373.50;;;17.00;94.42
55759;BME280;41678;52.126;20.664;2023-08-30T21:07:40;99381.59;;;16.97;94.68
55759;BME280;41678;52.126;20.664;2023-08-30T21:12:59;99381.59;;;16.97;94.43
55759;BME280;41678;52.126;20.664;2023-08-30T21:18:19;99373.78;;;16.94;94.46
55759;BME280;41678;52.126;20.664;2023-08-30T21:23:38;99368.56;;;16.92;94.68
55759;BME280;41678;52.126;20.664;2023-08-30T21:28:58;99363.31;;;16.91;94.65
55759;BME280;41678;52.126;20.664;2023-08-30T21:34:17;99373.06;;;16.90;94.14
55759;BME280;41678;52.126;20.664;2023-08-30T21:39:37;99358.94;;;16.90;94.28
55759;BME280;41678;52.126;20.664;2023-08-30T21:44:56;99357.28;;;16.87;93.97
55759;BME280;41678;52.126;20.664;2023-08-30T21:50:16;99363.31;;;16.91;94.24
55759;BME280;41678;52.126;20.664;2023-08-30T21:55:36;99373.19;;;16.89;94.23
55759;BME280;41678;52.126;20.664;2023-08-30T22:00:56;99378.56;;;16.87;94.11
55759;BME280;41678;52.126;20.664;2023-08-30T22:06:17;99367.25;;;16.83;94.10
55759;BME280;41678;52.126;20.664;2023-08-30T22:11:38;99369.81;;;16.85;94.09
55759;BME280;41678;52.126;20.664;2023-08-30T22:16:58;99363.66;;;16.84;94.11
55759;BME280;41678;52.126;20.664;2023-08-30T22:22:17;99354.19;;;16.79;94.19
55759;BME280;41678;52.126;20.664;2023-08-30T22:27:39;99363.88;;;16.80;94.22
55759;BME280;41678;52.126;20.664;2023-08-30T22:32:59;99366.53;;;16.80;94.28
55759;BME280;41678;52.126;20.664;2023-08-30T22:38:19;99365.84;;;16.76;94.23
55759;BME280;41678;52.126;20.664;2023-08-30T22:43:38;99375.69;;;16.74;94.07
55759;BME280;41678;52.126;20.664;2023-08-30T22:48:58;99375.75;;;16.73;94.21
55759;BME280;41678;52.126;20.664;2023-08-30T22:54:18;99379.28;;;16.73;94.24
55759;BME280;41678;52.126;20.664;2023-08-30T22:59:40;99387.44;;;16.70;94.23
55759;BME280;41678;52.126;20.664;2023-08-30T23:05:00;99383.13;;;16.67;93.93
55759;BME280;41678;52.126;20.664;2023-08-30T23:10:20;99380.84;;;16.60;93.98
55759;BME280;41678;52.126;20.664;2023-08-30T23:15:43;99387.00;;;16.60;94.21
55759;BME280;41678;52.126;20.664;2023-08-30T23:21:02;99391.66;;;16.56;94.36
55759;BME280;41678;52.126;20.664;2023-08-30T23:26:21;99399.63;;;16.56;94.13
55759;BME280;41678;52.126;20.664;2023-08-30T23:31:41;99397.13;;;16.53;93.87
55759;BME280;41678;52.126;20.664;2023-08-30T23:37:01;99394.59;;;16.50;93.96
55759;BME280;41678;52.126;20.664;2023-08-30T23:42:20;99384.13;;;16.47;94.13
55759;BME280;41678;52.126;20.664;2023-08-30T23:47:40;99372.19;;;16.38;94.01
55759;BME280;41678;52.126;20.664;2023-08-30T23:52:59;99388.06;;;16.40;94.23
55759;BME280;41678;52.126;20.664;2023-08-30T23:58:19;99378.38;;;16.39;94.04
